createdAt,value
2017-10-14T10:57:25.254Z,19.00
2017-10-14T11:02:26.333Z,18.90
2017-10-14T11:07:28.120Z,20.30
2017-10-14T11:12:29.190Z,20.30
2017-10-14T11:17:30.269Z,20.70
2017-10-14T11:22:32.070Z,20.90
2017-10-14T11:27:33.119Z,20.90
2017-10-14T11:32:34.182Z,20.80
2017-10-14T11:37:35.244Z,21.50
2017-10-14T11:42:36.295Z,21.70
2017-10-14T11:47:37.332Z,21.60
2017-10-14T11:52:38.479Z,22.20
2017-10-14T11:57:39.573Z,22.60
2017-10-14T12:02:40.634Z,22.40
2017-10-14T12:07:41.742Z,22.80
2017-10-14T12:12:44.818Z,22.90
2017-10-14T12:17:47.650Z,22.90
2017-10-14T12:22:48.752Z,22.90
2017-10-14T12:27:49.874Z,22.90
2017-10-14T12:32:50.981Z,23.30
2017-10-14T12:37:52.188Z,23.30
2017-10-14T12:42:53.286Z,23.10
2017-10-14T12:47:54.373Z,23.50
2017-10-14T12:52:56.281Z,23.20
2017-10-14T12:57:57.389Z,23.20
2017-10-14T13:02:58.500Z,23.10
2017-10-14T13:07:59.609Z,23.10
2017-10-14T13:13:00.718Z,22.90
2017-10-14T13:18:01.826Z,23.10
2017-10-14T13:23:02.926Z,22.80
2017-10-14T13:28:04.035Z,22.50
2017-10-14T13:33:05.145Z,22.00
2017-10-14T13:38:06.218Z,22.00
2017-10-14T13:43:07.390Z,21.60
2017-10-14T13:48:08.515Z,21.70
2017-10-14T13:53:10.393Z,21.80
2017-10-14T13:58:11.502Z,21.70
2017-10-14T14:03:12.670Z,21.60
2017-10-14T14:08:13.822Z,21.40
2017-10-14T14:13:14.937Z,21.00
2017-10-14T14:18:16.101Z,20.90
2017-10-14T14:23:17.186Z,20.70
2017-10-14T14:28:18.276Z,20.40
2017-10-14T14:33:19.378Z,20.70
2017-10-14T14:38:20.484Z,20.80
2017-10-14T14:43:21.548Z,20.70
2017-10-14T14:48:23.392Z,20.10
2017-10-14T14:53:24.501Z,20.00
2017-10-14T14:58:25.581Z,19.70
2017-10-14T15:03:27.418Z,19.60
2017-10-14T15:08:28.506Z,19.50
2017-10-14T15:13:30.657Z,19.20
2017-10-14T15:18:31.738Z,19.20
2017-10-14T15:23:32.820Z,19.10
2017-10-14T15:28:33.906Z,19.00
2017-10-14T15:33:35.001Z,18.80
2017-10-14T15:38:36.159Z,18.50
2017-10-14T15:43:37.223Z,18.30
2017-10-14T15:48:38.313Z,18.00
2017-10-14T15:53:39.421Z,17.70
2017-10-14T15:58:40.819Z,17.50
2017-10-14T16:03:42.698Z,16.80
2017-10-14T16:08:43.810Z,16.70
2017-10-14T16:14:02.178Z,16.40
2017-10-14T16:19:03.295Z,16.00
2017-10-14T16:24:08.629Z,15.20
2017-10-14T16:29:09.822Z,15.20
2017-10-14T16:34:11.028Z,14.90
2017-10-14T16:39:12.192Z,14.80
2017-10-14T16:44:13.376Z,14.50
2017-10-14T16:49:14.519Z,14.30
2017-10-14T16:54:15.683Z,14.00
2017-10-14T16:59:16.800Z,13.90
2017-10-14T17:04:17.921Z,13.70
2017-10-14T17:09:19.036Z,13.50
2017-10-14T17:14:20.131Z,13.40
2017-10-14T17:19:21.230Z,13.20
2017-10-14T17:24:22.368Z,13.10
2017-10-14T17:29:24.236Z,12.90
2017-10-14T17:34:25.318Z,12.80
2017-10-14T17:39:26.416Z,12.80
2017-10-14T17:44:27.499Z,12.50
2017-10-14T17:49:32.518Z,12.20
2017-10-14T17:54:33.609Z,12.20
2017-10-14T17:59:34.706Z,12.20
2017-10-14T18:04:35.765Z,12.10
2017-10-14T18:09:38.088Z,11.90
2017-10-14T18:14:39.190Z,11.80
2017-10-14T18:19:41.047Z,11.70
2017-10-14T18:24:42.125Z,11.70
2017-10-14T18:29:43.974Z,11.50
2017-10-14T18:34:48.807Z,11.40
2017-10-14T18:39:49.904Z,11.30
2017-10-14T18:44:51.748Z,11.10
2017-10-14T18:49:52.857Z,11.10
2017-10-14T18:54:54.673Z,10.80
2017-10-14T18:59:55.753Z,10.80
2017-10-14T19:04:56.835Z,10.70
2017-10-14T19:09:59.788Z,10.50
2017-10-14T19:15:01.001Z,10.50
2017-10-14T19:20:02.874Z,10.50
2017-10-14T19:25:04.752Z,10.40
2017-10-14T19:30:06.586Z,10.40
2017-10-14T19:35:07.661Z,10.40
2017-10-14T19:40:08.750Z,10.30
2017-10-14T19:45:10.564Z,10.20
2017-10-14T19:50:11.669Z,10.20
2017-10-14T19:55:12.756Z,10.10
2017-10-14T20:00:13.857Z,10.00
2017-10-14T20:05:14.965Z,9.80
2017-10-14T20:10:16.073Z,9.80
2017-10-14T20:15:17.174Z,9.80
2017-10-14T20:20:20.016Z,9.60
2017-10-14T20:25:21.113Z,9.60
2017-10-14T20:30:22.225Z,9.50
2017-10-14T20:35:23.310Z,9.40
2017-10-14T20:40:24.408Z,9.40
2017-10-14T20:45:25.489Z,9.30
2017-10-14T20:50:26.581Z,9.20
2017-10-14T20:55:27.657Z,9.30
2017-10-14T21:00:28.765Z,9.10
2017-10-14T21:05:32.893Z,9.00
2017-10-14T21:10:37.765Z,8.90
2017-10-14T21:15:38.839Z,8.90
2017-10-14T21:20:39.961Z,8.90
2017-10-14T21:25:41.063Z,8.80
2017-10-14T21:30:42.217Z,8.80
2017-10-14T21:35:43.333Z,8.80
2017-10-14T21:40:45.540Z,8.80
2017-10-14T21:45:46.718Z,8.70
2017-10-14T21:50:47.837Z,8.80
2017-10-14T21:55:53.439Z,8.70
2017-10-14T22:00:55.317Z,8.70
2017-10-14T22:05:56.386Z,8.70
2017-10-14T22:10:58.215Z,8.60
2017-10-14T22:16:00.031Z,8.70
2017-10-14T22:21:01.152Z,8.70
2017-10-14T22:26:02.247Z,8.60
2017-10-14T22:31:03.407Z,8.50
2017-10-14T22:36:04.473Z,8.50
2017-10-14T22:41:05.587Z,8.60
2017-10-14T22:46:07.403Z,8.50
2017-10-14T22:51:08.493Z,8.40
2017-10-14T22:56:09.586Z,8.30
2017-10-14T23:01:10.697Z,8.30
2017-10-14T23:06:11.826Z,8.40
2017-10-14T23:11:12.918Z,8.40
2017-10-14T23:16:14.758Z,8.30
2017-10-14T23:21:15.836Z,8.20
2017-10-14T23:26:16.949Z,8.20
2017-10-14T23:31:18.028Z,8.00
2017-10-14T23:36:19.086Z,7.80
2017-10-14T23:41:20.152Z,7.90
2017-10-14T23:46:21.226Z,7.90
2017-10-14T23:51:22.322Z,7.90
2017-10-14T23:56:24.133Z,7.80
